Latest Weather Observations for Robe Airport

IDS60801

Issued at 10:31 am CST Thursday 25 August 2016 (issued every 30 minutes, with the page automatically refreshed every 10 minutes)

About weather observations | Map of weather stations | Latest weather observations for SA | Other Formats
Station Details ID: 026105 Name: ROBE AIRFIELD Lat: -37.18 Lon: 139.81 Height: 3.0 m
Data from the previous 72 hours. | See also: Recent months at Robe Airport
Date/Time
CST
Temp
°C
App
Temp
°C
Dew
Point
°C
Rel
Hum
%
Delta-T
°C
Wind Press
QNH
hPa
Press
MSL
hPa
Rain since
9am
mm
Dir  Spd
km/h
Gust
km/h
Spd
kts
Gust
kts
25/10:30am 13.1 8.8 7.1 67 2.9 SW 19 28 10 15 1019.4 1019.4 0.0
25/10:00am 12.6 7.8 5.5 62 3.3 SW 20 28 11 15 1019.4 1019.4 0.0
25/09:30am 12.3 7.0 5.0 61 3.3 SSW 22 32 12 17 1019.1 1019.1 0.0
25/09:00am 12.1 7.0 4.3 59 3.5 SSW 20 30 11 16 1019.0 1019.0 0.4
25/08:30am 11.4 6.4 4.8 64 3.0 SSW 20 28 11 15 1018.7 1018.7 0.4
25/08:00am 9.9 5.1 4.9 71 2.2 SSW 19 26 10 14 1018.5 1018.5 0.4
25/07:30am 8.8 6.0 6.9 88 0.9 S 11 24 6 13 1018.2 1018.2 0.4
25/07:00am 8.7 6.3 7.2 90 0.7 S 9 15 5 8 1018.0 1018.0 0.2
25/06:30am 7.8 6.0 5.6 86 1.0 SSW 4 7 2 4 1017.6 1017.6 0.2
25/06:00am 9.8 4.4 6.2 78 1.7 SSW 24 37 13 20 1017.4 1017.4 0.0
25/05:30am 9.9 6.6 6.3 78 1.7 SW 13 19 7 10 1017.0 1017.0 0.0
25/05:00am 10.0 6.6 6.0 76 1.8 SW 13 20 7 11 1016.9 1016.9 0.0
25/04:30am 10.2 5.6 6.4 77 1.8 SW 20 32 11 17 1016.6 1016.6 0.0
25/04:00am 10.1 6.6 5.5 73 2.1 SW 13 20 7 11 1016.6 1016.6 0.0
25/03:30am 8.7 6.2 4.9 77 1.7 WSW 7 13 4 7 1016.6 1016.6 0.0
25/03:00am 8.1 5.7 4.3 77 1.7 SW 6 9 3 5 1016.8 1016.8 0.0
25/02:30am 7.6 4.9 5.6 87 0.9 SW 9 13 5 7 1016.9 1016.9 0.0
25/02:00am 3.5 0.7 3.2 98 0.1 S 7 9 4 5 1017.1 1017.1 0.0
25/01:30am 1.7 -0.1 1.1 96 0.2 CALM 0 0 0 0 1017.2 1017.2 0.0
25/01:00am 1.2 -0.7 0.6 96 0.2 CALM 0 0 0 0 1017.3 1017.3 0.0
25/12:30am 1.2 -0.7 0.6 96 0.2 CALM 0 0 0 0 1017.5 1017.5 0.0
25/12:00am 1.9 0.1 1.2 95 0.3 CALM 0 0 0 0 1017.5 1017.5 0.0
 
Date/Time
CST
Temp
°C
App
Temp
°C
Dew
Point
°C
Rel
Hum
%
Delta-T
°C
Wind Press
QNH
hPa
Press
MSL
hPa
Rain since
9am
mm
Dir  Spd
km/h
Gust
km/h
Spd
kts
Gust
kts
24/11:30pm 2.5 0.8 1.8 95 0.3 CALM 0 0 0 0 1017.6 1017.6 0.0
24/11:00pm 2.0 0.2 1.1 94 0.3 CALM 0 0 0 0 1017.6 1017.6 0.0
24/10:30pm 2.6 0.9 1.7 94 0.3 CALM 0 0 0 0 1017.7 1017.7 0.0
24/10:00pm 3.0 1.3 2.0 93 0.4 CALM 0 0 0 0 1017.7 1017.7 0.0
24/09:30pm 3.2 1.5 1.9 91 0.5 CALM 0 0 0 0 1017.7 1017.7 0.0
24/09:00pm 4.4 2.8 2.6 88 0.7 CALM 0 0 0 0 1017.7 1017.7 0.0
24/08:30pm 5.3 3.8 3.0 85 0.9 CALM 0 0 0 0 1017.6 1017.6 0.0
24/08:00pm 6.8 4.2 3.4 79 1.4 SSE 6 11 3 6 1017.5 1017.5 0.0
24/07:30pm 7.5 4.4 3.7 77 1.6 S 9 13 5 7 1017.5 1017.5 0.0
24/07:00pm 7.9 4.9 3.9 76 1.7 S 9 13 5 7 1017.4 1017.4 0.0
24/06:30pm 8.3 5.3 3.9 74 1.9 S 9 13 5 7 1017.0 1017.0 0.0
24/06:00pm 8.9 5.5 4.1 72 2.1 S 11 15 6 8 1016.7 1016.7 0.0
24/05:30pm 10.0 5.9 4.2 67 2.6 S 15 19 8 10 1016.5 1016.5 0.0
24/05:00pm 11.1 6.6 4.1 62 3.1 S 17 22 9 12 1016.2 1016.2 0.0
24/04:30pm 11.7 7.2 4.4 61 3.3 S 17 20 9 11 1015.9 1015.9 0.0
24/04:00pm 12.1 7.6 4.1 58 3.6 S 17 24 9 13 1015.9 1015.9 0.0
24/03:30pm 12.1 7.6 4.3 59 3.5 S 17 24 9 13 1016.1 1016.1 0.0
24/03:00pm 12.8 8.1 5.2 60 3.5 S 19 26 10 14 1015.9 1015.9 0.0
24/02:30pm 13.1 8.8 5.3 59 3.6 SSW 17 22 9 12 1015.9 1015.9 0.0
24/02:00pm 12.1 8.0 4.1 58 3.6 S 15 22 8 12 1015.8 1015.8 0.0
24/01:30pm 12.3 8.4 3.3 54 4.0 S 13 20 7 11 1016.0 1016.0 0.0
24/01:00pm 12.9 9.0 3.6 53 4.2 SE 13 20 7 11 1016.2 1016.2 0.0
24/12:30pm 12.7 8.7 3.1 52 4.2 SSE 13 20 7 11 1016.5 1016.5 0.0
24/12:00pm 12.8 9.5 4.5 57 3.8 SE 11 19 6 10 1016.8 1016.8 0.0
24/11:30am 11.9 8.4 3.7 57 3.6 SE 11 20 6 11 1017.1 1017.1 0.0
24/11:00am 12.1 8.2 3.3 55 3.9 SE 13 22 7 12 1017.3 1017.3 0.0
24/10:30am 12.0 8.6 3.8 57 3.7 SE 11 17 6 9 1017.3 1017.3 0.0
24/10:00am 11.8 8.7 3.6 57 3.6 ESE 9 13 5 7 1017.5 1017.5 0.0
24/09:30am 11.3 9.4 5.0 65 2.9 E 4 6 2 3 1017.7 1017.7 0.0
24/09:00am 9.7 7.3 4.3 69 2.4 E 6 7 3 4 1018.0 1018.0 0.0
24/08:30am 8.5 7.1 5.3 80 1.4 SE 2 4 1 2 1018.0 1018.0 0.0
24/08:00am 5.7 3.7 4.2 90 0.6 SE 4 6 2 3 1017.9 1017.9 0.0
24/07:30am 3.6 1.3 2.7 94 0.4 SE 4 6 2 3 1017.7 1017.7 0.0
24/07:00am 1.6 -0.3 0.4 92 0.4 CALM 0 0 0 0 1017.6 1017.6 0.0
24/06:30am 1.8 -0.1 0.5 91 0.5 CALM 0 0 0 0 1017.4 1017.4 0.0
24/06:00am 3.4 1.0 1.9 90 0.6 SE 4 6 2 3 1017.1 1017.1 0.0
24/05:30am 3.3 0.8 1.8 90 0.6 SE 4 6 2 3 1017.1 1017.1 0.0
24/05:00am 3.6 0.8 2.0 89 0.6 SE 6 6 3 3 1017.0 1017.0 0.0
24/04:30am 4.1 1.7 2.3 88 0.7 SE 4 6 2 3 1016.9 1016.9 0.0
24/04:00am 4.5 2.2 2.8 89 0.7 SE 4 6 2 3 1016.8 1016.8 0.0
24/03:30am 4.5 1.9 3.0 90 0.6 SE 6 7 3 4 1016.8 1016.8 0.0
24/03:00am 4.8 2.0 3.1 89 0.7 SE 7 9 4 5 1017.0 1017.0 0.0
24/02:30am 4.9 2.1 3.4 90 0.6 SE 7 9 4 5 1017.3 1017.3 0.0
24/02:00am 4.9 2.1 3.4 90 0.6 SE 7 9 4 5 1017.4 1017.4 0.0
24/01:30am 5.0 2.2 3.3 89 0.7 SE 7 7 4 4 1017.4 1017.4 0.0
24/01:00am 5.0 2.4 3.0 87 0.8 SE 6 6 3 3 1017.5 1017.5 0.0
24/12:30am 5.5 3.3 3.2 85 0.9 SE 4 6 2 3 1017.4 1017.4 0.0
24/12:00am 6.1 3.4 3.6 84 1.0 SE 7 9 4 5 1017.6 1017.6 0.0
 
Date/Time
CST
Temp
°C
App
Temp
°C
Dew
Point
°C
Rel
Hum
%
Delta-T
°C
Wind Press
QNH
hPa
Press
MSL
hPa
Rain since
9am
mm
Dir  Spd
km/h
Gust
km/h
Spd
kts
Gust
kts
23/11:30pm 6.1 3.4 3.6 84 1.0 ESE 7 11 4 6 1017.5 1017.5 0.0
23/11:00pm 6.0 3.3 3.5 84 1.0 SE 7 7 4 4 1017.6 1017.6 0.0
23/10:30pm 6.4 3.7 3.6 82 1.2 SE 7 9 4 5 1017.7 1017.7 0.0
23/10:00pm 6.7 4.0 3.5 80 1.4 SE 7 9 4 5 1017.9 1017.9 0.0
23/09:30pm 7.5 4.4 3.7 77 1.6 SE 9 13 5 7 1018.0 1018.0 0.0
23/09:00pm 8.6 4.9 4.4 75 1.8 SE 13 19 7 10 1017.8 1017.8 0.0
23/08:30pm 8.8 5.2 4.8 76 1.8 SE 13 19 7 10 1017.9 1017.9 0.0
23/08:00pm 8.7 5.6 5.6 81 1.4 SE 11 17 6 9 1017.7 1017.7 0.0
23/07:30pm 8.8 6.2 5.9 82 1.3 SSE 9 11 5 6 1017.7 1017.7 0.0
23/07:00pm 9.0 6.7 5.7 80 1.5 SSE 7 9 4 5 1017.8 1017.8 0.0
23/06:30pm 9.5 6.5 5.9 78 1.6 SSE 11 15 6 8 1017.7 1017.7 0.0
23/06:00pm 9.8 6.4 5.8 76 1.8 SSE 13 20 7 11 1017.6 1017.6 0.0
23/05:30pm 10.7 8.1 5.9 72 2.2 SSE 9 17 5 9 1017.4 1017.4 0.0
23/05:00pm 11.4 7.9 5.5 67 2.7 SSE 13 20 7 11 1017.3 1017.3 0.0
23/04:30pm 12.3 8.5 5.9 65 3.0 SSE 15 19 8 10 1017.1 1017.1 0.0
23/04:00pm 12.9 9.5 6.0 63 3.3 SSE 13 17 7 9 1017.1 1017.1 0.0
23/03:30pm 13.6 10.7 6.7 63 3.3 SSE 11 20 6 11 1017.0 1017.0 0.0
23/03:00pm 13.6 10.3 6.2 61 3.5 SSE 13 19 7 10 1016.8 1016.8 0.0
23/02:30pm 13.2 10.0 5.1 58 3.8 SE 11 17 6 9 1016.9 1016.9 0.0
23/02:00pm 13.1 9.6 5.3 59 3.6 SE 13 17 7 9 1017.1 1017.1 0.0
23/01:30pm 13.3 10.3 6.2 62 3.4 ESE 11 17 6 9 1017.2 1017.2 0.0
23/01:00pm 13.0 9.6 5.9 62 3.3 ESE 13 17 7 9 1017.5 1017.5 0.0
23/12:30pm 12.6 9.4 5.3 61 3.4 ESE 11 22 6 12 1017.6 1017.6 0.0
23/12:00pm 12.4 8.6 5.6 63 3.2 ESE 15 22 8 12 1017.9 1017.9 0.0
23/11:30am 11.9 7.8 4.6 61 3.3 SE 15 24 8 13 1018.1 1018.1 0.0
23/11:00am 12.3 8.9 5.7 64 3.1 ESE 13 19 7 10 1018.3 1018.3 0.0
23/10:30am 11.9 8.8 5.5 65 3.0 ESE 11 17 6 9 1018.4 1018.4 0.0
23/10:00am 11.1 7.5 5.2 67 2.7 E 13 19 7 10 1018.5 1018.5 0.0
23/09:30am 10.4 7.2 5.2 70 2.4 ESE 11 19 6 10 1018.5 1018.5 0.0
23/09:00am 9.6 6.6 5.8 77 1.7 ESE 11 15 6 8 1018.7 1018.7 0.0
23/08:30am 8.1 6.1 6.2 88 0.9 ESE 6 9 3 5 1018.9 1018.9 0.0
23/08:00am 6.6 5.7 6.0 96 0.3 CALM 0 0 0 0 1018.8 1018.8 0.0
23/07:30am 3.9 2.5 3.3 96 0.2 CALM 0 0 0 0 1018.7 1018.7 0.0
23/07:00am 3.0 1.3 2.1 94 0.4 CALM 0 0 0 0 1018.4 1018.4 0.0
23/06:30am 3.3 1.7 2.4 94 0.4 CALM 0 0 0 0 1018.2 1018.2 0.0
23/06:00am 4.6 3.2 3.6 93 0.4 CALM 0 2 0 1 1017.9 1017.9 0.0
23/05:30am 4.8 2.7 3.8 93 0.4 ESE 4 4 2 2 1017.5 1017.5 0.0
23/05:00am 4.8 2.7 3.8 93 0.4 ESE 4 6 2 3 1017.1 1017.1 0.0
23/04:30am 5.1 2.7 4.1 93 0.4 ESE 6 7 3 4 1017.0 1017.0 0.0
23/04:00am 5.3 2.9 4.3 93 0.4 ESE 6 7 3 4 1016.9 1016.9 0.0
23/03:30am 5.4 3.0 4.4 93 0.4 ESE 6 9 3 5 1016.8 1016.8 0.0
23/03:00am 5.7 3.4 4.7 93 0.4 SE 6 6 3 3 1016.8 1016.8 0.0
23/02:30am 6.1 4.2 4.9 92 0.5 SE 4 6 2 3 1016.9 1016.9 0.0
23/02:00am 6.4 4.2 5.4 93 0.4 SE 6 6 3 3 1017.0 1017.0 0.0
23/01:30am 6.7 4.4 5.7 93 0.4 SE 7 9 4 5 1017.0 1017.0 0.0
23/01:00am 6.8 4.6 5.4 91 0.6 SSE 6 9 3 5 1017.1 1017.1 0.0
23/12:30am 7.7 5.6 6.5 92 0.5 SE 7 9 4 5 1017.0 1017.0 0.0
23/12:00am 7.4 5.3 5.9 90 0.7 SE 6 7 3 4 1017.1 1017.1 0.0
 
Date/Time
CST
Temp
°C
App
Temp
°C
Dew
Point
°C
Rel
Hum
%
Delta-T
°C
Wind Press
QNH
hPa
Press
MSL
hPa
Rain since
9am
mm
Dir  Spd
km/h
Gust
km/h
Spd
kts
Gust
kts
22/11:30pm 7.4 5.2 5.5 88 0.8 SE 6 9 3 5 1017.1 1017.1 0.0
22/11:00pm 7.9 5.7 6.0 88 0.9 ESE 7 11 4 6 1016.9 1016.9 0.0
22/10:30pm 8.0 5.8 6.1 88 0.9 ESE 7 11 4 6 1017.0 1017.0 0.0
22/10:00pm 8.1 5.5 6.2 88 0.9 SE 9 13 5 7 1017.0 1017.0 0.0
22/09:30pm 8.2 6.2 6.3 88 0.9 ESE 6 7 3 4 1016.9 1016.9 0.0
22/09:00pm 8.6 6.5 6.6 87 0.9 ESE 7 11 4 6 1016.6 1016.6 0.0
22/08:30pm 9.0 6.6 6.8 86 1.0 SE 9 11 5 6 1016.4 1016.4 0.0
22/08:00pm 9.9 7.2 7.5 85 1.1 SE 11 15 6 8 1016.1 1016.1 0.0
22/07:30pm 10.2 7.3 8.0 86 1.1 SE 13 20 7 11 1015.8 1015.8 0.0
22/07:00pm 10.6 7.8 8.4 86 1.1 SSE 13 20 7 11 1015.5 1015.5 0.0
22/06:30pm 10.6 8.2 8.5 87 1.0 SSE 11 17 6 9 1015.1 1015.1 0.0
22/06:00pm 10.8 8.3 8.4 85 1.2 S 11 15 6 8 1014.6 1014.6 0.0
22/05:30pm 11.6 8.8 8.6 82 1.5 S 13 19 7 10 1014.3 1014.3 0.0
22/05:00pm 12.4 8.5 8.5 77 1.9 S 19 26 10 14 1014.2 1014.2 0.0
22/04:30pm 12.9 9.5 9.0 77 2.0 S 17 22 9 12 1013.9 1013.9 0.0
22/04:00pm 13.4 9.6 9.1 75 2.2 S 19 24 10 13 1013.7 1013.7 0.0
22/03:30pm 13.7 10.3 9.0 73 2.4 S 17 20 9 11 1013.4 1013.4 0.0
22/03:00pm 14.5 11.1 10.5 77 2.1 S 19 22 10 12 1013.1 1013.1 0.0
22/02:30pm 14.4 11.2 9.8 74 2.4 S 17 20 9 11 1013.0 1013.0 0.0
22/02:00pm 13.9 10.2 9.5 75 2.3 S 19 24 10 13 1013.0 1013.0 0.0
22/01:30pm 14.0 10.3 9.4 74 2.4 SSW 19 28 10 15 1013.0 1013.0 0.0
22/01:00pm 14.3 10.6 9.3 72 2.6 S 19 26 10 14 1013.2 1013.2 0.0
22/12:30pm 13.9 11.0 9.5 75 2.3 S 15 22 8 12 1013.5 1013.5 0.0
22/12:00pm 12.8 10.5 9.1 78 1.9 S 11 19 6 10 1013.6 1013.6 0.0
22/11:30am 12.2 9.3 9.6 84 1.3 S 15 19 8 10 1013.7 1013.7 0.0
22/11:00am 12.4 10.4 10.1 86 1.2 SW 11 19 6 10 1013.9 1013.9 0.0

Other Formats:

Comma delimited format used in spreadsheet applications
http://www.bom.gov.au/fwo/IDS60801/IDS60801.95816.axf

JavaScript Object Notation format (JSON) in row-major order
http://www.bom.gov.au/fwo/IDS60801/IDS60801.95816.json